Picton, Canada
Current Conditions -  °F | °C
As of 4:00 PM on Wednesday 17 Dec 2014 (Local Time) from CYTR Reporting Station
Drizzle Drizzle  
Wind Chill: -1°   Ceiling: 700
Heat Index:   Visibility: 9mi
Dew Point:   Wind: 13mph
Humidity: 93%   Direction: 250°WSW
Pressure: 29.82"   Gusts: 18mph
Location:  44.01°N, 77.14°W
Report Text: CYTR 172100Z 25011G16KT 9SM -DZ OVC007 03/02 A2982 RMK SF8 SLP104
Loading
Personal Weather Stations






























Interactive Weather Map New forecast layout! Learn more

10-Day Weather Forecast

Advertisements
Track Severe Weather on mobile